sensor_id;sensor_type;location;lat;lon;timestamp;pressure;altitude;pressure_sealevel;temperature;humidity
76124;BME280;65173;48.066;20.976;2023-02-28T00:00:38;101561.59;;;-3.00;70.21
76124;BME280;65173;48.066;20.976;2023-02-28T00:03:41;101556.56;;;-3.01;70.59
76124;BME280;65173;48.066;20.976;2023-02-28T00:06:44;101569.06;;;-2.90;70.30
76124;BME280;65173;48.066;20.976;2023-02-28T00:09:50;101583.94;;;-2.84;70.15
76124;BME280;65173;48.066;20.976;2023-02-28T00:12:59;101578.34;;;-2.81;69.77
76124;BME280;65173;48.066;20.976;2023-02-28T00:16:04;101575.50;;;-2.86;69.94
76124;BME280;65173;48.066;20.976;2023-02-28T00:19:08;101582.75;;;-2.88;70.56
76124;BME280;65173;48.066;20.976;2023-02-28T00:22:11;101594.44;;;-2.77;70.46
76124;BME280;65173;48.066;20.976;2023-02-28T00:25:17;101600.13;;;-2.61;69.73
76124;BME280;65173;48.066;20.976;2023-02-28T00:28:20;101600.94;;;-2.60;70.25
76124;BME280;65173;48.066;20.976;2023-02-28T00:31:22;101585.66;;;-2.70;70.18
76124;BME280;65173;48.066;20.976;2023-02-28T00:34:26;101592.47;;;-2.69;69.89
76124;BME280;65173;48.066;20.976;2023-02-28T00:37:28;101597.66;;;-2.75;70.31
76124;BME280;65173;48.066;20.976;2023-02-28T00:40:32;101589.44;;;-2.72;70.43
76124;BME280;65173;48.066;20.976;2023-02-28T00:43:37;101592.38;;;-2.82;70.05
76124;BME280;65173;48.066;20.976;2023-02-28T00:46:40;101598.47;;;-2.68;70.38
76124;BME280;65173;48.066;20.976;2023-02-28T00:49:43;101588.78;;;-2.81;70.87
76124;BME280;65173;48.066;20.976;2023-02-28T00:52:47;101588.81;;;-2.74;69.82
76124;BME280;65173;48.066;20.976;2023-02-28T00:55:50;101598.78;;;-2.85;70.57
76124;BME280;65173;48.066;20.976;2023-02-28T00:58:53;101601.69;;;-2.73;70.67
76124;BME280;65173;48.066;20.976;2023-02-28T01:01:56;101594.22;;;-2.76;71.24
76124;BME280;65173;48.066;20.976;2023-02-28T01:04:59;101603.69;;;-2.68;70.81
76124;BME280;65173;48.066;20.976;2023-02-28T01:08:05;101596.13;;;-2.57;71.44
76124;BME280;65173;48.066;20.976;2023-02-28T01:11:10;101596.72;;;-2.61;70.72
76124;BME280;65173;48.066;20.976;2023-02-28T01:14:16;101597.53;;;-2.61;70.40
76124;BME280;65173;48.066;20.976;2023-02-28T01:17:20;101606.59;;;-2.57;70.11
76124;BME280;65173;48.066;20.976;2023-02-28T01:20:23;101600.59;;;-2.44;70.07
76124;BME280;65173;48.066;20.976;2023-02-28T01:23:26;101614.66;;;-2.52;71.00
76124;BME280;65173;48.066;20.976;2023-02-28T01:26:29;101605.63;;;-2.42;70.40
76124;BME280;65173;48.066;20.976;2023-02-28T01:29:33;101604.63;;;-2.41;70.74
76124;BME280;65173;48.066;20.976;2023-02-28T01:32:36;101602.41;;;-2.45;71.04
76124;BME280;65173;48.066;20.976;2023-02-28T01:35:39;101595.81;;;-2.40;69.97
76124;BME280;65173;48.066;20.976;2023-02-28T01:38:43;101612.94;;;-2.25;69.81
76124;BME280;65173;48.066;20.976;2023-02-28T01:41:48;101606.94;;;-2.12;69.52
76124;BME280;65173;48.066;20.976;2023-02-28T01:48:28;101604.19;;;-1.91;69.34
76124;BME280;65173;48.066;20.976;2023-02-28T01:54:40;101605.63;;;-1.82;68.39
76124;BME280;65173;48.066;20.976;2023-02-28T01:57:52;101613.66;;;-1.83;69.10
76124;BME280;65173;48.066;20.976;2023-02-28T02:00:57;101607.63;;;-1.84;68.96
76124;BME280;65173;48.066;20.976;2023-02-28T02:04:02;101620.50;;;-1.76;68.88
76124;BME280;65173;48.066;20.976;2023-02-28T02:07:06;101622.31;;;-1.83;69.03
76124;BME280;65173;48.066;20.976;2023-02-28T02:36:23;101624.56;;;-1.53;69.36
76124;BME280;65173;48.066;20.976;2023-02-28T02:46:01;101626.78;;;-1.50;69.57
76124;BME280;65173;48.066;20.976;2023-02-28T02:49:09;101627.19;;;-1.53;69.29
76124;BME280;65173;48.066;20.976;2023-02-28T02:52:18;101631.63;;;-1.47;69.64
76124;BME280;65173;48.066;20.976;2023-02-28T02:55:23;101630.19;;;-1.43;69.51
76124;BME280;65173;48.066;20.976;2023-02-28T02:58:31;101626.56;;;-1.42;69.20
76124;BME280;65173;48.066;20.976;2023-02-28T03:01:38;101636.25;;;-1.36;69.49
76124;BME280;65173;48.066;20.976;2023-02-28T03:04:50;101632.41;;;-1.33;69.02
76124;BME280;65173;48.066;20.976;2023-02-28T03:07:56;101624.56;;;-1.33;69.16
76124;BME280;65173;48.066;20.976;2023-02-28T03:11:01;101629.41;;;-1.30;68.90
76124;BME280;65173;48.066;20.976;2023-02-28T03:21:00;101626.56;;;-1.22;69.05
76124;BME280;65173;48.066;20.976;2023-02-28T03:24:10;101626.59;;;-1.16;69.11
76124;BME280;65173;48.066;20.976;2023-02-28T03:30:53;101628.19;;;-1.08;68.21
76124;BME280;65173;48.066;20.976;2023-02-28T03:34:26;101637.25;;;-1.11;68.64
76124;BME280;65173;48.066;20.976;2023-02-28T03:37:32;101638.47;;;-1.13;68.88
76124;BME280;65173;48.066;20.976;2023-02-28T03:40:39;101640.69;;;-1.10;68.81
76124;BME280;65173;48.066;20.976;2023-02-28T03:43:51;101643.28;;;-1.10;69.17
76124;BME280;65173;48.066;20.976;2023-02-28T03:47:02;101640.25;;;-1.07;68.83
76124;BME280;65173;48.066;20.976;2023-02-28T03:53:20;101633.41;;;-1.01;68.31
76124;BME280;65173;48.066;20.976;2023-02-28T03:56:31;101639.84;;;-0.97;68.07
76124;BME280;65173;48.066;20.976;2023-02-28T03:59:42;101636.03;;;-0.95;67.88
76124;BME280;65173;48.066;20.976;2023-02-28T04:02:46;101633.41;;;-0.95;67.68
76124;BME280;65173;48.066;20.976;2023-02-28T04:05:55;101630.41;;;-0.92;67.92
76124;BME280;65173;48.066;20.976;2023-02-28T04:09:00;101634.63;;;-0.91;67.43
76124;BME280;65173;48.066;20.976;2023-02-28T04:12:04;101634.63;;;-0.91;67.35
76124;BME280;65173;48.066;20.976;2023-02-28T04:15:07;101641.06;;;-0.93;67.59
76124;BME280;65173;48.066;20.976;2023-02-28T04:18:10;101635.00;;;-0.87;67.16
76124;BME280;65173;48.066;20.976;2023-02-28T04:21:13;101632.59;;;-0.89;67.27
76124;BME280;65173;48.066;20.976;2023-02-28T04:24:19;101631.00;;;-0.90;67.01
76124;BME280;65173;48.066;20.976;2023-02-28T04:27:22;101629.59;;;-0.92;67.41
76124;BME280;65173;48.066;20.976;2023-02-28T04:30:25;101622.34;;;-0.90;67.25
76124;BME280;65173;48.066;20.976;2023-02-28T04:33:28;101627.34;;;-0.89;67.04
76124;BME280;65173;48.066;20.976;2023-02-28T04:36:31;101635.41;;;-0.84;67.19
76124;BME280;65173;48.066;20.976;2023-02-28T04:39:36;101626.53;;;-0.76;66.97
76124;BME280;65173;48.066;20.976;2023-02-28T04:42:39;101632.59;;;-0.82;66.82
76124;BME280;65173;48.066;20.976;2023-02-28T04:45:42;101628.34;;;-0.83;66.82
76124;BME280;65173;48.066;20.976;2023-02-28T04:48:45;101629.34;;;-0.84;66.72
76124;BME280;65173;48.066;20.976;2023-02-28T04:51:48;101635.41;;;-0.77;66.85
76124;BME280;65173;48.066;20.976;2023-02-28T04:54:52;101633.38;;;-0.82;66.80
76124;BME280;65173;48.066;20.976;2023-02-28T04:57:55;101641.03;;;-0.80;66.74
76124;BME280;65173;48.066;20.976;2023-02-28T05:01:02;101632.59;;;-0.76;66.85
76124;BME280;65173;48.066;20.976;2023-02-28T05:04:05;101630.56;;;-0.74;66.48
76124;BME280;65173;48.066;20.976;2023-02-28T05:07:08;101625.94;;;-0.78;67.04
76124;BME280;65173;48.066;20.976;2023-02-28T05:10:12;101625.75;;;-0.77;66.80
76124;BME280;65173;48.066;20.976;2023-02-28T05:13:15;101627.34;;;-0.76;66.91
76124;BME280;65173;48.066;20.976;2023-02-28T05:16:18;101624.94;;;-0.84;67.63
76124;BME280;65173;48.066;20.976;2023-02-28T05:19:22;101631.78;;;-0.83;67.45
76124;BME280;65173;48.066;20.976;2023-02-28T05:22:25;101630.56;;;-0.74;66.85
76124;BME280;65173;48.066;20.976;2023-02-28T05:25:28;101642.25;;;-0.76;67.01
76124;BME280;65173;48.066;20.976;2023-02-28T05:28:31;101645.06;;;-0.78;66.99
76124;BME280;65173;48.066;20.976;2023-02-28T05:31:34;101642.84;;;-0.74;67.46
76124;BME280;65173;48.066;20.976;2023-02-28T05:34:38;101651.31;;;-0.72;67.52
76124;BME280;65173;48.066;20.976;2023-02-28T05:37:41;101644.66;;;-0.75;67.27
76124;BME280;65173;48.066;20.976;2023-02-28T05:40:44;101647.06;;;-0.73;67.46
76124;BME280;65173;48.066;20.976;2023-02-28T05:43:47;101647.44;;;-0.70;67.93
76124;BME280;65173;48.066;20.976;2023-02-28T05:46:50;101654.09;;;-0.67;67.82
76124;BME280;65173;48.066;20.976;2023-02-28T05:49:53;101653.13;;;-0.73;68.27
76124;BME280;65173;48.066;20.976;2023-02-28T05:52:57;101650.66;;;-0.67;67.88
76124;BME280;65173;48.066;20.976;2023-02-28T05:56:00;101653.47;;;-0.56;67.42
76124;BME280;65173;48.066;20.976;2023-02-28T05:59:02;101652.25;;;-0.53;67.72
76124;BME280;65173;48.066;20.976;2023-02-28T06:02:13;101656.66;;;-0.41;66.68
76124;BME280;65173;48.066;20.976;2023-02-28T06:05:17;101656.25;;;-0.38;66.77
76124;BME280;65173;48.066;20.976;2023-02-28T06:08:20;101652.78;;;-0.31;66.62
76124;BME280;65173;48.066;20.976;2023-02-28T06:11:23;101655.59;;;-0.20;66.53
76124;BME280;65173;48.066;20.976;2023-02-28T06:14:30;101651.09;;;-0.13;66.29
76124;BME280;65173;48.066;20.976;2023-02-28T06:17:33;101653.13;;;-0.15;66.04
76124;BME280;65173;48.066;20.976;2023-02-28T06:20:36;101656.94;;;-0.11;66.38
76124;BME280;65173;48.066;20.976;2023-02-28T06:23:39;101661.75;;;-0.01;65.96
76124;BME280;65173;48.066;20.976;2023-02-28T06:26:41;101676.19;;;0.15;65.33
76124;BME280;65173;48.066;20.976;2023-02-28T06:29:44;101657.00;;;0.21;65.45
76124;BME280;65173;48.066;20.976;2023-02-28T06:32:47;101668.75;;;0.43;64.45
76124;BME280;65173;48.066;20.976;2023-02-28T06:35:52;101666.41;;;0.35;65.17
76124;BME280;65173;48.066;20.976;2023-02-28T06:38:55;101656.66;;;0.42;64.86
76124;BME280;65173;48.066;20.976;2023-02-28T06:41:58;101653.84;;;0.44;64.91
76124;BME280;65173;48.066;20.976;2023-02-28T06:45:01;101659.47;;;0.47;64.73
76124;BME280;65173;48.066;20.976;2023-02-28T06:48:09;101661.06;;;0.48;64.17
76124;BME280;65173;48.066;20.976;2023-02-28T06:51:15;101653.59;;;0.52;64.07
76124;BME280;65173;48.066;20.976;2023-02-28T06:54:18;101650.59;;;0.48;63.69
76124;BME280;65173;48.066;20.976;2023-02-28T06:57:21;101648.75;;;0.49;63.90
76124;BME280;65173;48.066;20.976;2023-02-28T07:00:24;101654.16;;;0.54;63.48
76124;BME280;65173;48.066;20.976;2023-02-28T07:03:27;101655.72;;;0.61;63.03
76124;BME280;65173;48.066;20.976;2023-02-28T07:06:31;101663.97;;;0.65;63.40
76124;BME280;65173;48.066;20.976;2023-02-28T07:09:33;101659.22;;;0.80;63.06
76124;BME280;65173;48.066;20.976;2023-02-28T07:12:37;101661.63;;;0.82;62.58
76124;BME280;65173;48.066;20.976;2023-02-28T07:15:41;101658.91;;;0.95;62.52
76124;BME280;65173;48.066;20.976;2023-02-28T07:18:45;101657.84;;;1.02;62.30
76124;BME280;65173;48.066;20.976;2023-02-28T07:21:48;101671.34;;;1.06;61.53
76124;BME280;65173;48.066;20.976;2023-02-28T07:24:51;101668.22;;;1.16;61.56
76124;BME280;65173;48.066;20.976;2023-02-28T07:27:56;101671.72;;;1.28;60.89
76124;BME280;65173;48.066;20.976;2023-02-28T07:31:05;101668.03;;;1.35;61.32
76124;BME280;65173;48.066;20.976;2023-02-28T07:34:09;101675.13;;;1.53;61.38
76124;BME280;65173;48.066;20.976;2023-02-28T07:37:12;101675.59;;;1.62;60.05
76124;BME280;65173;48.066;20.976;2023-02-28T07:40:15;101684.38;;;1.92;60.71
76124;BME280;65173;48.066;20.976;2023-02-28T07:43:18;101671.28;;;2.04;59.88
76124;BME280;65173;48.066;20.976;2023-02-28T07:46:21;101685.19;;;2.23;59.65
76124;BME280;65173;48.066;20.976;2023-02-28T07:49:24;101683.47;;;2.47;58.35
76124;BME280;65173;48.066;20.976;2023-02-28T07:52:27;101686.78;;;2.54;57.04
76124;BME280;65173;48.066;20.976;2023-02-28T07:55:30;101685.69;;;2.73;57.39
76124;BME280;65173;48.066;20.976;2023-02-28T07:58:33;101681.13;;;2.68;57.44
76124;BME280;65173;48.066;20.976;2023-02-28T08:01:35;101680.25;;;2.86;57.43
76124;BME280;65173;48.066;20.976;2023-02-28T08:04:38;101685.06;;;3.24;55.75
76124;BME280;65173;48.066;20.976;2023-02-28T08:07:41;101682.72;;;3.63;55.28
76124;BME280;65173;48.066;20.976;2023-02-28T08:10:44;101680.97;;;4.20;53.05
76124;BME280;65173;48.066;20.976;2023-02-28T08:13:47;101684.84;;;4.91;52.29
76124;BME280;65173;48.066;20.976;2023-02-28T08:16:50;101684.88;;;3.89;53.09
76124;BME280;65173;48.066;20.976;2023-02-28T08:19:54;101673.63;;;3.94;53.23
76124;BME280;65173;48.066;20.976;2023-02-28T08:22:57;101680.75;;;3.93;52.59
76124;BME280;65173;48.066;20.976;2023-02-28T08:26:00;101678.69;;;3.83;54.14
76124;BME280;65173;48.066;20.976;2023-02-28T08:29:03;101676.53;;;4.99;51.00
76124;BME280;65173;48.066;20.976;2023-02-28T08:32:06;101678.59;;;5.52;49.68
76124;BME280;65173;48.066;20.976;2023-02-28T08:35:25;101676.09;;;5.07;50.93
76124;BME280;65173;48.066;20.976;2023-02-28T08:38:27;101675.59;;;5.87;50.58
76124;BME280;65173;48.066;20.976;2023-02-28T08:41:30;101676.34;;;6.32;48.41
76124;BME280;65173;48.066;20.976;2023-02-28T08:44:33;101678.88;;;5.56;48.39
76124;BME280;65173;48.066;20.976;2023-02-28T08:47:36;101681.09;;;6.56;47.49
76124;BME280;65173;48.066;20.976;2023-02-28T08:50:39;101673.25;;;7.04;45.61
76124;BME280;65173;48.066;20.976;2023-02-28T08:53:42;101676.13;;;7.39;45.51
76124;BME280;65173;48.066;20.976;2023-02-28T08:56:46;101669.91;;;8.53;42.81
76124;BME280;65173;48.066;20.976;2023-02-28T08:59:49;101674.59;;;8.31;43.53
76124;BME280;65173;48.066;20.976;2023-02-28T09:02:52;101680.53;;;8.89;43.12
76124;BME280;65173;48.066;20.976;2023-02-28T09:05:58;101678.03;;;8.26;43.80
76124;BME280;65173;48.066;20.976;2023-02-28T09:09:01;101677.31;;;7.63;45.55
76124;BME280;65173;48.066;20.976;2023-02-28T09:12:06;101682.41;;;7.70;47.06
76124;BME280;65173;48.066;20.976;2023-02-28T09:15:10;101687.97;;;7.74;45.65
76124;BME280;65173;48.066;20.976;2023-02-28T09:18:13;101680.75;;;7.12;45.74
76124;BME280;65173;48.066;20.976;2023-02-28T09:21:18;101683.50;;;7.27;46.04
76124;BME280;65173;48.066;20.976;2023-02-28T09:24:21;101692.28;;;6.63;46.42
76124;BME280;65173;48.066;20.976;2023-02-28T09:27:25;101699.41;;;6.09;47.92
76124;BME280;65173;48.066;20.976;2023-02-28T09:30:30;101692.00;;;6.06;49.94
76124;BME280;65173;48.066;20.976;2023-02-28T09:33:35;101698.06;;;5.85;50.34
76124;BME280;65173;48.066;20.976;2023-02-28T09:36:39;101695.94;;;6.31;49.26
76124;BME280;65173;48.066;20.976;2023-02-28T09:39:47;101694.22;;;6.41;48.88
76124;BME280;65173;48.066;20.976;2023-02-28T09:42:52;101692.56;;;6.62;48.22
76124;BME280;65173;48.066;20.976;2023-02-28T09:49:31;101683.88;;;6.40;49.31
76124;BME280;65173;48.066;20.976;2023-02-28T09:52:36;101671.03;;;6.26;48.47
76124;BME280;65173;48.066;20.976;2023-02-28T09:55:43;101683.06;;;6.39;48.29
76124;BME280;65173;48.066;20.976;2023-02-28T09:58:58;101692.84;;;6.39;48.03
76124;BME280;65173;48.066;20.976;2023-02-28T10:02:18;101697.22;;;6.01;50.09
76124;BME280;65173;48.066;20.976;2023-02-28T10:05:39;101698.97;;;6.17;49.05
76124;BME280;65173;48.066;20.976;2023-02-28T10:09:02;101691.13;;;6.27;48.76
76124;BME280;65173;48.066;20.976;2023-02-28T10:12:08;101684.47;;;5.98;49.25
76124;BME280;65173;48.066;20.976;2023-02-28T10:15:15;101686.34;;;5.81;50.40
76124;BME280;65173;48.066;20.976;2023-02-28T10:18:24;101686.53;;;6.18;50.04
76124;BME280;65173;48.066;20.976;2023-02-28T10:21:36;101682.91;;;6.24;49.60
76124;BME280;65173;48.066;20.976;2023-02-28T10:24:47;101692.94;;;6.49;48.50
76124;BME280;65173;48.066;20.976;2023-02-28T10:27:57;101694.91;;;6.63;48.58
76124;BME280;65173;48.066;20.976;2023-02-28T10:31:03;101685.91;;;6.59;49.33
76124;BME280;65173;48.066;20.976;2023-02-28T10:34:07;101687.84;;;5.93;49.70
76124;BME280;65173;48.066;20.976;2023-02-28T10:37:14;101689.19;;;5.52;51.64
76124;BME280;65173;48.066;20.976;2023-02-28T10:40:30;101692.41;;;5.98;49.87
76124;BME280;65173;48.066;20.976;2023-02-28T10:43:36;101692.47;;;6.25;50.92
76124;BME280;65173;48.066;20.976;2023-02-28T10:46:41;101690.34;;;6.54;50.99
76124;BME280;65173;48.066;20.976;2023-02-28T10:49:49;101680.56;;;6.54;49.35
76124;BME280;65173;48.066;20.976;2023-02-28T10:52:53;101677.59;;;6.51;50.80
76124;BME280;65173;48.066;20.976;2023-02-28T10:56:00;101669.28;;;6.69;49.68
76124;BME280;65173;48.066;20.976;2023-02-28T10:59:27;101658.66;;;7.01;48.47
76124;BME280;65173;48.066;20.976;2023-02-28T11:02:36;101658.22;;;7.14;48.00
76124;BME280;65173;48.066;20.976;2023-02-28T11:05:41;101648.81;;;7.34;48.17
76124;BME280;65173;48.066;20.976;2023-02-28T11:08:47;101642.38;;;7.82;48.60
76124;BME280;65173;48.066;20.976;2023-02-28T11:11:51;101641.34;;;7.88;46.82
76124;BME280;65173;48.066;20.976;2023-02-28T11:15:02;101642.28;;;7.61;47.36
76124;BME280;65173;48.066;20.976;2023-02-28T11:18:25;101648.22;;;7.89;46.67
76124;BME280;65173;48.066;20.976;2023-02-28T11:21:32;101654.59;;;7.88;46.67
76124;BME280;65173;48.066;20.976;2023-02-28T11:24:49;101641.69;;;7.44;47.50
76124;BME280;65173;48.066;20.976;2023-02-28T11:27:57;101639.38;;;7.63;46.66
76124;BME280;65173;48.066;20.976;2023-02-28T11:31:04;101639.97;;;7.80;47.18
76124;BME280;65173;48.066;20.976;2023-02-28T11:34:25;101635.22;;;7.87;47.93
76124;BME280;65173;48.066;20.976;2023-02-28T11:37:30;101636.28;;;7.91;45.86
76124;BME280;65173;48.066;20.976;2023-02-28T11:40:38;101632.81;;;7.91;46.71
76124;BME280;65173;48.066;20.976;2023-02-28T11:44:02;101625.13;;;7.84;47.21
76124;BME280;65173;48.066;20.976;2023-02-28T11:51:09;101633.41;;;8.03;47.07
76124;BME280;65173;48.066;20.976;2023-02-28T11:58:00;101621.44;;;8.11;46.89
76124;BME280;65173;48.066;20.976;2023-02-28T12:11:40;101608.50;;;8.60;46.02
76124;BME280;65173;48.066;20.976;2023-02-28T12:24:44;101602.38;;;8.85;45.26
76124;BME280;65173;48.066;20.976;2023-02-28T12:27:52;101602.38;;;8.64;44.45
76124;BME280;65173;48.066;20.976;2023-02-28T12:31:09;101597.28;;;8.07;46.65
76124;BME280;65173;48.066;20.976;2023-02-28T12:34:21;101591.88;;;7.61;47.76
76124;BME280;65173;48.066;20.976;2023-02-28T12:37:31;101590.66;;;8.25;47.96
76124;BME280;65173;48.066;20.976;2023-02-28T12:40:45;101591.50;;;8.46;46.94
76124;BME280;65173;48.066;20.976;2023-02-28T12:43:57;101592.56;;;8.55;46.77
76124;BME280;65173;48.066;20.976;2023-02-28T12:47:03;101589.78;;;7.69;48.42
76124;BME280;65173;48.066;20.976;2023-02-28T12:50:10;101593.56;;;8.03;47.16
76124;BME280;65173;48.066;20.976;2023-02-28T12:57:38;101594.63;;;7.97;47.51
76124;BME280;65173;48.066;20.976;2023-02-28T13:01:04;101576.28;;;7.90;47.64
76124;BME280;65173;48.066;20.976;2023-02-28T13:04:32;101581.59;;;7.95;46.35
76124;BME280;65173;48.066;20.976;2023-02-28T13:11:59;101567.00;;;7.83;47.99
76124;BME280;65173;48.066;20.976;2023-02-28T13:15:12;101568.84;;;7.92;46.96
76124;BME280;65173;48.066;20.976;2023-02-28T13:18:32;101562.50;;;8.04;48.59
76124;BME280;65173;48.066;20.976;2023-02-28T13:21:42;101571.25;;;7.84;48.50
76124;BME280;65173;48.066;20.976;2023-02-28T13:24:55;101565.41;;;8.07;47.92
76124;BME280;65173;48.066;20.976;2023-02-28T13:27:59;101562.22;;;7.95;47.42
76124;BME280;65173;48.066;20.976;2023-02-28T13:31:06;101568.59;;;8.09;47.16
76124;BME280;65173;48.066;20.976;2023-02-28T13:34:15;101564.63;;;8.17;46.96
76124;BME280;65173;48.066;20.976;2023-02-28T13:40:32;101563.56;;;7.97;47.51
76124;BME280;65173;48.066;20.976;2023-02-28T13:44:02;101566.47;;;8.06;47.32
76124;BME280;65173;48.066;20.976;2023-02-28T13:53:56;101562.41;;;7.58;47.28
76124;BME280;65173;48.066;20.976;2023-02-28T13:57:42;101560.03;;;7.61;48.49
76124;BME280;65173;48.066;20.976;2023-02-28T14:07:50;101560.75;;;7.42;47.35
76124;BME280;65173;48.066;20.976;2023-02-28T14:11:08;101558.28;;;7.15;48.14
76124;BME280;65173;48.066;20.976;2023-02-28T14:17:40;101554.50;;;7.06;49.39
76124;BME280;65173;48.066;20.976;2023-02-28T14:20:43;101552.38;;;6.97;50.67
76124;BME280;65173;48.066;20.976;2023-02-28T14:37:04;101546.25;;;6.97;49.96
76124;BME280;65173;48.066;20.976;2023-02-28T14:40:37;101556.50;;;6.78;51.25
76124;BME280;65173;48.066;20.976;2023-02-28T14:43:52;101548.50;;;6.73;51.40
76124;BME280;65173;48.066;20.976;2023-02-28T14:47:02;101558.09;;;6.84;50.95
76124;BME280;65173;48.066;20.976;2023-02-28T14:50:22;101542.75;;;6.86;50.85
76124;BME280;65173;48.066;20.976;2023-02-28T14:53:28;101545.34;;;6.76;51.64
76124;BME280;65173;48.066;20.976;2023-02-28T14:56:35;101545.31;;;6.71;51.49
76124;BME280;65173;48.066;20.976;2023-02-28T14:59:39;101541.47;;;6.52;52.89
76124;BME280;65173;48.066;20.976;2023-02-28T15:02:43;101537.00;;;6.57;52.79
76124;BME280;65173;48.066;20.976;2023-02-28T15:05:54;101546.31;;;6.60;51.90
76124;BME280;65173;48.066;20.976;2023-02-28T15:09:29;101540.41;;;6.53;51.19
76124;BME280;65173;48.066;20.976;2023-02-28T15:12:32;101533.97;;;6.39;51.52
76124;BME280;65173;48.066;20.976;2023-02-28T15:15:58;101531.78;;;6.31;52.22
76124;BME280;65173;48.066;20.976;2023-02-28T15:19:26;101527.47;;;6.19;52.28
76124;BME280;65173;48.066;20.976;2023-02-28T15:22:35;101525.81;;;6.13;52.57
76124;BME280;65173;48.066;20.976;2023-02-28T15:25:40;101529.25;;;6.14;52.42
76124;BME280;65173;48.066;20.976;2023-02-28T15:28:44;101536.66;;;6.12;52.68
76124;BME280;65173;48.066;20.976;2023-02-28T15:31:49;101525.44;;;6.00;52.96
76124;BME280;65173;48.066;20.976;2023-02-28T15:35:19;101535.94;;;5.89;53.18
76124;BME280;65173;48.066;20.976;2023-02-28T15:38:27;101529.88;;;5.94;53.33
76124;BME280;65173;48.066;20.976;2023-02-28T15:41:36;101523.44;;;5.85;53.95
76124;BME280;65173;48.066;20.976;2023-02-28T15:44:41;101520.97;;;5.78;54.12
76124;BME280;65173;48.066;20.976;2023-02-28T15:47:45;101521.19;;;5.72;53.94
76124;BME280;65173;48.066;20.976;2023-02-28T15:50:52;101512.72;;;5.70;53.99
76124;BME280;65173;48.066;20.976;2023-02-28T15:54:00;101514.69;;;5.57;54.50
76124;BME280;65173;48.066;20.976;2023-02-28T15:57:05;101516.75;;;5.50;54.30
76124;BME280;65173;48.066;20.976;2023-02-28T16:00:18;101512.75;;;5.48;54.94
76124;BME280;65173;48.066;20.976;2023-02-28T16:03:38;101517.81;;;5.28;55.13
76124;BME280;65173;48.066;20.976;2023-02-28T16:07:02;101524.44;;;5.08;56.50
76124;BME280;65173;48.066;20.976;2023-02-28T16:10:09;101520.50;;;4.89;56.85
76124;BME280;65173;48.066;20.976;2023-02-28T16:13:15;101525.50;;;4.69;57.45
76124;BME280;65173;48.066;20.976;2023-02-28T16:16:20;101530.75;;;4.47;57.94
76124;BME280;65173;48.066;20.976;2023-02-28T16:19:24;101532.59;;;4.30;58.75
76124;BME280;65173;48.066;20.976;2023-02-28T16:22:27;101524.41;;;4.14;59.66
76124;BME280;65173;48.066;20.976;2023-02-28T16:25:38;101528.16;;;4.02;60.21
76124;BME280;65173;48.066;20.976;2023-02-28T16:28:43;101540.28;;;3.86;61.06
76124;BME280;65173;48.066;20.976;2023-02-28T16:31:46;101536.34;;;3.72;61.75
76124;BME280;65173;48.066;20.976;2023-02-28T16:34:49;101541.88;;;3.59;62.41
76124;BME280;65173;48.066;20.976;2023-02-28T16:37:52;101551.44;;;3.48;62.74
76124;BME280;65173;48.066;20.976;2023-02-28T16:40:58;101540.84;;;3.31;64.02
76124;BME280;65173;48.066;20.976;2023-02-28T16:44:04;101540.72;;;3.26;64.48
76124;BME280;65173;48.066;20.976;2023-02-28T16:47:13;101542.81;;;3.12;64.82
76124;BME280;65173;48.066;20.976;2023-02-28T16:50:27;101553.63;;;2.99;66.60
76124;BME280;65173;48.066;20.976;2023-02-28T16:53:31;101551.88;;;2.93;66.14
76124;BME280;65173;48.066;20.976;2023-02-28T16:56:34;101558.22;;;2.81;66.29
76124;BME280;65173;48.066;20.976;2023-02-28T16:59:37;101555.09;;;2.72;66.03
76124;BME280;65173;48.066;20.976;2023-02-28T17:02:41;101561.31;;;2.66;66.12
76124;BME280;65173;48.066;20.976;2023-02-28T17:05:44;101558.53;;;2.49;66.50
76124;BME280;65173;48.066;20.976;2023-02-28T17:08:49;101561.13;;;2.37;67.36
76124;BME280;65173;48.066;20.976;2023-02-28T17:11:52;101572.91;;;2.35;66.84
76124;BME280;65173;48.066;20.976;2023-02-28T17:14:55;101575.69;;;2.40;66.49
76124;BME280;65173;48.066;20.976;2023-02-28T17:17:59;101566.59;;;2.13;68.05
76124;BME280;65173;48.066;20.976;2023-02-28T17:21:09;101575.78;;;1.92;69.70
76124;BME280;65173;48.066;20.976;2023-02-28T17:24:15;101566.47;;;1.78;70.63
76124;BME280;65173;48.066;20.976;2023-02-28T17:27:31;101565.69;;;1.77;70.62
76124;BME280;65173;48.066;20.976;2023-02-28T17:30:35;101566.06;;;1.92;69.30
76124;BME280;65173;48.066;20.976;2023-02-28T17:33:38;101564.63;;;1.96;69.50
76124;BME280;65173;48.066;20.976;2023-02-28T17:36:41;101564.25;;;1.93;68.99
76124;BME280;65173;48.066;20.976;2023-02-28T17:39:44;101568.94;;;2.02;68.84
76124;BME280;65173;48.066;20.976;2023-02-28T17:42:47;101573.78;;;2.05;69.40
76124;BME280;65173;48.066;20.976;2023-02-28T17:45:50;101568.31;;;2.19;69.32
76124;BME280;65173;48.066;20.976;2023-02-28T17:48:54;101568.66;;;2.11;68.43
76124;BME280;65173;48.066;20.976;2023-02-28T17:51:56;101567.13;;;2.03;69.27
76124;BME280;65173;48.066;20.976;2023-02-28T17:55:00;101566.03;;;2.11;69.09
76124;BME280;65173;48.066;20.976;2023-02-28T17:58:03;101573.94;;;2.22;69.29
76124;BME280;65173;48.066;20.976;2023-02-28T18:01:06;101575.44;;;2.30;68.85
76124;BME280;65173;48.066;20.976;2023-02-28T18:04:09;101572.69;;;2.36;68.82
76124;BME280;65173;48.066;20.976;2023-02-28T18:07:12;101572.59;;;2.43;68.93
76124;BME280;65173;48.066;20.976;2023-02-28T18:10:20;101570.41;;;2.40;69.03
76124;BME280;65173;48.066;20.976;2023-02-28T18:13:23;101567.25;;;2.50;68.85
76124;BME280;65173;48.066;20.976;2023-02-28T18:16:26;101567.91;;;2.57;68.91